sensor_id;sensor_type;location;lat;lon;timestamp;pressure;altitude;pressure_sealevel;temperature
43802;BMP280;29429;51.074;13.764;2022-07-29T00:01:01;100169.97;;;17.34
43802;BMP280;29429;51.074;13.764;2022-07-29T00:03:28;100166.97;;;17.31
43802;BMP280;29429;51.074;13.764;2022-07-29T00:05:55;100167.28;;;17.34
43802;BMP280;29429;51.074;13.764;2022-07-29T00:08:22;100168.09;;;17.35
43802;BMP280;29429;51.074;13.764;2022-07-29T00:10:50;100172.00;;;17.39
43802;BMP280;29429;51.074;13.764;2022-07-29T00:13:17;100178.91;;;17.35
43802;BMP280;29429;51.074;13.764;2022-07-29T00:15:59;100170.81;;;17.35
43802;BMP280;29429;51.074;13.764;2022-07-29T00:18:31;100169.75;;;17.36
43802;BMP280;29429;51.074;13.764;2022-07-29T00:20:58;100176.19;;;17.35
43802;BMP280;29429;51.074;13.764;2022-07-29T00:23:26;100178.06;;;17.34
43802;BMP280;29429;51.074;13.764;2022-07-29T00:25:52;100173.75;;;17.33
43802;BMP280;29429;51.074;13.764;2022-07-29T00:28:19;100170.22;;;17.33
43802;BMP280;29429;51.074;13.764;2022-07-29T00:30:46;100158.03;;;17.30
43802;BMP280;29429;51.074;13.764;2022-07-29T00:33:13;100153.69;;;17.29
43802;BMP280;29429;51.074;13.764;2022-07-29T00:35:40;100153.38;;;17.26
43802;BMP280;29429;51.074;13.764;2022-07-29T00:38:19;100152.78;;;17.24
43802;BMP280;29429;51.074;13.764;2022-07-29T00:40:47;100146.97;;;17.15
43802;BMP280;29429;51.074;13.764;2022-07-29T00:43:15;100145.91;;;17.04
43802;BMP280;29429;51.074;13.764;2022-07-29T00:45:43;100147.09;;;16.97
43802;BMP280;29429;51.074;13.764;2022-07-29T00:48:10;100146.97;;;16.92
43802;BMP280;29429;51.074;13.764;2022-07-29T00:50:38;100142.75;;;16.84
43802;BMP280;29429;51.074;13.764;2022-07-29T00:53:08;100141.16;;;16.83
43802;BMP280;29429;51.074;13.764;2022-07-29T00:55:37;100142.19;;;16.82
43802;BMP280;29429;51.074;13.764;2022-07-29T00:58:05;100136.78;;;16.82
43802;BMP280;29429;51.074;13.764;2022-07-29T01:00:33;100131.06;;;16.79
43802;BMP280;29429;51.074;13.764;2022-07-29T01:03:00;100133.63;;;16.74
43802;BMP280;29429;51.074;13.764;2022-07-29T01:05:28;100131.19;;;16.72
43802;BMP280;29429;51.074;13.764;2022-07-29T01:08:17;100133.88;;;16.72
43802;BMP280;29429;51.074;13.764;2022-07-29T01:10:46;100119.59;;;16.72
43802;BMP280;29429;51.074;13.764;2022-07-29T01:13:15;100118.75;;;16.71
43802;BMP280;29429;51.074;13.764;2022-07-29T01:15:47;100113.25;;;16.66
43802;BMP280;29429;51.074;13.764;2022-07-29T01:18:41;100123.47;;;16.64
43802;BMP280;29429;51.074;13.764;2022-07-29T01:21:55;100109.88;;;16.59
43802;BMP280;29429;51.074;13.764;2022-07-29T01:27:26;100112.88;;;16.51
43802;BMP280;29429;51.074;13.764;2022-07-29T01:30:02;100115.69;;;16.44
43802;BMP280;29429;51.074;13.764;2022-07-29T01:32:37;100113.94;;;16.38
43802;BMP280;29429;51.074;13.764;2022-07-29T01:35:07;100113.13;;;16.38
43802;BMP280;29429;51.074;13.764;2022-07-29T01:37:47;100106.44;;;16.40
43802;BMP280;29429;51.074;13.764;2022-07-29T01:40:30;100112.19;;;16.44
43802;BMP280;29429;51.074;13.764;2022-07-29T01:43:09;100099.19;;;16.41
43802;BMP280;29429;51.074;13.764;2022-07-29T01:46:04;100103.75;;;16.40
43802;BMP280;29429;51.074;13.764;2022-07-29T01:48:45;100101.78;;;16.36
43802;BMP280;29429;51.074;13.764;2022-07-29T01:51:32;100105.63;;;16.40
43802;BMP280;29429;51.074;13.764;2022-07-29T01:56:47;100103.41;;;16.37
43802;BMP280;29429;51.074;13.764;2022-07-29T01:59:17;100105.16;;;16.43
43802;BMP280;29429;51.074;13.764;2022-07-29T02:01:49;100103.06;;;16.45
43802;BMP280;29429;51.074;13.764;2022-07-29T02:04:21;100109.16;;;16.40
43802;BMP280;29429;51.074;13.764;2022-07-29T02:07:02;100109.50;;;16.44
43802;BMP280;29429;51.074;13.764;2022-07-29T02:09:32;100109.50;;;16.44
43802;BMP280;29429;51.074;13.764;2022-07-29T02:12:02;100114.19;;;16.49
43802;BMP280;29429;51.074;13.764;2022-07-29T02:14:36;100104.00;;;16.51
43802;BMP280;29429;51.074;13.764;2022-07-29T02:17:03;100104.00;;;16.51
43802;BMP280;29429;51.074;13.764;2022-07-29T02:19:33;100099.31;;;16.46
43802;BMP280;29429;51.074;13.764;2022-07-29T02:22:01;100100.94;;;16.47
43802;BMP280;29429;51.074;13.764;2022-07-29T02:24:30;100104.25;;;16.49
43802;BMP280;29429;51.074;13.764;2022-07-29T02:26:59;100105.84;;;16.50
43802;BMP280;29429;51.074;13.764;2022-07-29T02:29:30;100100.03;;;16.53
43802;BMP280;29429;51.074;13.764;2022-07-29T02:31:58;100084.31;;;16.50
43802;BMP280;29429;51.074;13.764;2022-07-29T02:34:28;100088.06;;;16.49
43802;BMP280;29429;51.074;13.764;2022-07-29T02:36:56;100086.44;;;16.48
43802;BMP280;29429;51.074;13.764;2022-07-29T02:39:25;100095.56;;;16.47
43802;BMP280;29429;51.074;13.764;2022-07-29T02:42:07;100089.59;;;16.45
43802;BMP280;29429;51.074;13.764;2022-07-29T02:44:35;100089.13;;;16.36
43802;BMP280;29429;51.074;13.764;2022-07-29T02:47:30;100092.50;;;16.32
43802;BMP280;29429;51.074;13.764;2022-07-29T02:50:30;100092.16;;;16.28
43802;BMP280;29429;51.074;13.764;2022-07-29T02:53:09;100089.81;;;16.20
43802;BMP280;29429;51.074;13.764;2022-07-29T02:55:55;100087.81;;;16.16
43802;BMP280;29429;51.074;13.764;2022-07-29T02:58:38;100095.69;;;16.17
43802;BMP280;29429;51.074;13.764;2022-07-29T03:01:20;100096.47;;;16.18
43802;BMP280;29429;51.074;13.764;2022-07-29T03:03:51;100096.47;;;16.18
43802;BMP280;29429;51.074;13.764;2022-07-29T03:06:22;100094.38;;;16.20
43802;BMP280;29429;51.074;13.764;2022-07-29T03:09:07;100097.66;;;16.22
43802;BMP280;29429;51.074;13.764;2022-07-29T03:11:41;100097.41;;;16.23
43802;BMP280;29429;51.074;13.764;2022-07-29T03:14:19;100096.75;;;16.28
43802;BMP280;29429;51.074;13.764;2022-07-29T03:16:48;100096.50;;;16.29
43802;BMP280;29429;51.074;13.764;2022-07-29T03:19:16;100102.81;;;16.35
43802;BMP280;29429;51.074;13.764;2022-07-29T03:21:44;100100.72;;;16.37
43802;BMP280;29429;51.074;13.764;2022-07-29T03:24:30;100093.44;;;16.37
43802;BMP280;29429;51.074;13.764;2022-07-29T03:26:58;100091.22;;;16.34
43802;BMP280;29429;51.074;13.764;2022-07-29T03:29:26;100089.81;;;16.32
43802;BMP280;29429;51.074;13.764;2022-07-29T03:32:06;100088.78;;;16.33
43802;BMP280;29429;51.074;13.764;2022-07-29T03:34:36;100087.00;;;16.27
43802;BMP280;29429;51.074;13.764;2022-07-29T03:37:05;100085.72;;;16.29
43802;BMP280;29429;51.074;13.764;2022-07-29T03:39:38;100086.31;;;16.31
43802;BMP280;29429;51.074;13.764;2022-07-29T03:42:08;100079.06;;;16.32
43802;BMP280;29429;51.074;13.764;2022-07-29T03:44:38;100076.94;;;16.34
43802;BMP280;29429;51.074;13.764;2022-07-29T03:47:07;100082.31;;;16.34
43802;BMP280;29429;51.074;13.764;2022-07-29T03:49:37;100071.44;;;16.29
43802;BMP280;29429;51.074;13.764;2022-07-29T03:52:05;100070.88;;;16.27
43802;BMP280;29429;51.074;13.764;2022-07-29T03:54:33;100073.81;;;16.25
43802;BMP280;29429;51.074;13.764;2022-07-29T03:57:02;100075.19;;;16.28
43802;BMP280;29429;51.074;13.764;2022-07-29T03:59:32;100078.00;;;16.33
43802;BMP280;29429;51.074;13.764;2022-07-29T04:02:03;100074.03;;;16.35
43802;BMP280;29429;51.074;13.764;2022-07-29T04:04:37;100068.41;;;16.37
43802;BMP280;29429;51.074;13.764;2022-07-29T04:07:04;100071.66;;;16.39
43802;BMP280;29429;51.074;13.764;2022-07-29T04:09:32;100072.03;;;16.42
43802;BMP280;29429;51.074;13.764;2022-07-29T04:11:59;100077.19;;;16.44
43802;BMP280;29429;51.074;13.764;2022-07-29T04:14:32;100080.78;;;16.50
43802;BMP280;29429;51.074;13.764;2022-07-29T04:17:03;100082.38;;;16.57
43802;BMP280;29429;51.074;13.764;2022-07-29T04:19:31;100085.97;;;16.63
43802;BMP280;29429;51.074;13.764;2022-07-29T04:22:00;100086.91;;;16.68
43802;BMP280;29429;51.074;13.764;2022-07-29T04:24:28;100085.50;;;16.77
43802;BMP280;29429;51.074;13.764;2022-07-29T04:26:55;100087.00;;;16.85
43802;BMP280;29429;51.074;13.764;2022-07-29T04:29:22;100083.59;;;16.89
43802;BMP280;29429;51.074;13.764;2022-07-29T04:31:49;100077.72;;;16.92
43802;BMP280;29429;51.074;13.764;2022-07-29T04:34:16;100081.81;;;16.95
43802;BMP280;29429;51.074;13.764;2022-07-29T04:36:43;100083.00;;;16.99
43802;BMP280;29429;51.074;13.764;2022-07-29T04:39:10;100086.03;;;17.02
43802;BMP280;29429;51.074;13.764;2022-07-29T04:41:37;100083.22;;;17.09
43802;BMP280;29429;51.074;13.764;2022-07-29T04:44:04;100076.03;;;17.15
43802;BMP280;29429;51.074;13.764;2022-07-29T04:46:38;100079.97;;;17.24
43802;BMP280;29429;51.074;13.764;2022-07-29T04:49:05;100083.59;;;17.29
43802;BMP280;29429;51.074;13.764;2022-07-29T04:51:32;100086.53;;;17.28
43802;BMP280;29429;51.074;13.764;2022-07-29T04:53:59;100087.13;;;17.30
43802;BMP280;29429;51.074;13.764;2022-07-29T04:56:26;100088.88;;;17.36
43802;BMP280;29429;51.074;13.764;2022-07-29T04:58:54;100086.59;;;17.44
43802;BMP280;29429;51.074;13.764;2022-07-29T05:01:21;100084.81;;;17.50
43802;BMP280;29429;51.074;13.764;2022-07-29T05:03:48;100078.94;;;17.53
43802;BMP280;29429;51.074;13.764;2022-07-29T05:06:14;100073.66;;;17.58
43802;BMP280;29429;51.074;13.764;2022-07-29T05:08:41;100073.25;;;17.66
43802;BMP280;29429;51.074;13.764;2022-07-29T05:11:08;100072.94;;;17.79
43802;BMP280;29429;51.074;13.764;2022-07-29T05:13:38;100065.63;;;17.91
43802;BMP280;29429;51.074;13.764;2022-07-29T05:16:13;100067.41;;;18.02
43802;BMP280;29429;51.074;13.764;2022-07-29T05:18:41;100062.66;;;18.09
43802;BMP280;29429;51.074;13.764;2022-07-29T05:21:08;100066.09;;;18.21
43802;BMP280;29429;51.074;13.764;2022-07-29T05:23:35;100073.28;;;18.33
43802;BMP280;29429;51.074;13.764;2022-07-29T05:26:02;100076.41;;;18.41
43802;BMP280;29429;51.074;13.764;2022-07-29T05:28:33;100066.03;;;18.50
43802;BMP280;29429;51.074;13.764;2022-07-29T05:31:00;100075.84;;;18.56
43802;BMP280;29429;51.074;13.764;2022-07-29T05:33:27;100075.91;;;18.61
43802;BMP280;29429;51.074;13.764;2022-07-29T05:36:04;100076.81;;;18.66
43802;BMP280;29429;51.074;13.764;2022-07-29T05:38:34;100079.56;;;18.71
43802;BMP280;29429;51.074;13.764;2022-07-29T05:41:02;100080.13;;;18.73
43802;BMP280;29429;51.074;13.764;2022-07-29T05:43:30;100080.97;;;18.74
43802;BMP280;29429;51.074;13.764;2022-07-29T05:45:57;100078.56;;;18.77
43802;BMP280;29429;51.074;13.764;2022-07-29T05:48:24;100086.50;;;18.84
43802;BMP280;29429;51.074;13.764;2022-07-29T05:50:52;100082.78;;;18.90
43802;BMP280;29429;51.074;13.764;2022-07-29T05:53:19;100082.34;;;18.98
43802;BMP280;29429;51.074;13.764;2022-07-29T05:55:48;100080.34;;;19.10
43802;BMP280;29429;51.074;13.764;2022-07-29T05:58:15;100073.59;;;19.13
43802;BMP280;29429;51.074;13.764;2022-07-29T06:00:42;100071.28;;;19.21
43802;BMP280;29429;51.074;13.764;2022-07-29T06:03:09;100070.88;;;19.34
43802;BMP280;29429;51.074;13.764;2022-07-29T06:05:36;100075.38;;;19.46
43802;BMP280;29429;51.074;13.764;2022-07-29T06:08:03;100075.00;;;19.64
43802;BMP280;29429;51.074;13.764;2022-07-29T06:10:32;100078.34;;;19.76
43802;BMP280;29429;51.074;13.764;2022-07-29T06:12:59;100072.53;;;19.89
43802;BMP280;29429;51.074;13.764;2022-07-29T06:15:26;100069.06;;;19.93
43802;BMP280;29429;51.074;13.764;2022-07-29T06:17:53;100068.84;;;20.00
43802;BMP280;29429;51.074;13.764;2022-07-29T06:20:28;100078.41;;;20.13
43802;BMP280;29429;51.074;13.764;2022-07-29T06:22:58;100070.13;;;20.24
43802;BMP280;29429;51.074;13.764;2022-07-29T06:25:25;100070.78;;;20.41
43802;BMP280;29429;51.074;13.764;2022-07-29T06:27:52;100067.38;;;20.56
43802;BMP280;29429;51.074;13.764;2022-07-29T06:30:19;100059.59;;;20.70
43802;BMP280;29429;51.074;13.764;2022-07-29T06:32:46;100067.78;;;20.80
43802;BMP280;29429;51.074;13.764;2022-07-29T06:35:13;100068.41;;;20.97
43802;BMP280;29429;51.074;13.764;2022-07-29T06:38:02;100067.66;;;21.11
43802;BMP280;29429;51.074;13.764;2022-07-29T06:40:44;100071.78;;;21.24
43802;BMP280;29429;51.074;13.764;2022-07-29T06:43:32;100070.72;;;21.35
43802;BMP280;29429;51.074;13.764;2022-07-29T06:46:04;100071.84;;;21.44
43802;BMP280;29429;51.074;13.764;2022-07-29T06:48:33;100073.22;;;21.52
43802;BMP280;29429;51.074;13.764;2022-07-29T06:51:00;100075.66;;;21.53
43802;BMP280;29429;51.074;13.764;2022-07-29T06:53:29;100070.81;;;21.60
43802;BMP280;29429;51.074;13.764;2022-07-29T06:55:57;100075.13;;;21.71
43802;BMP280;29429;51.074;13.764;2022-07-29T06:58:27;100083.84;;;21.73
43802;BMP280;29429;51.074;13.764;2022-07-29T07:00:56;100077.94;;;21.87
43802;BMP280;29429;51.074;13.764;2022-07-29T07:03:24;100082.81;;;22.00
43802;BMP280;29429;51.074;13.764;2022-07-29T07:05:53;100077.38;;;22.10
43802;BMP280;29429;51.074;13.764;2022-07-29T07:08:22;100079.53;;;22.28
43802;BMP280;29429;51.074;13.764;2022-07-29T07:10:51;100078.69;;;22.42
43802;BMP280;29429;51.074;13.764;2022-07-29T07:13:19;100077.34;;;22.55
43802;BMP280;29429;51.074;13.764;2022-07-29T07:15:46;100077.59;;;22.74
43802;BMP280;29429;51.074;13.764;2022-07-29T07:18:15;100078.03;;;22.96
43802;BMP280;29429;51.074;13.764;2022-07-29T07:20:43;100079.13;;;23.05
43802;BMP280;29429;51.074;13.764;2022-07-29T07:23:10;100072.53;;;23.16
43802;BMP280;29429;51.074;13.764;2022-07-29T07:25:37;100070.03;;;23.30
43802;BMP280;29429;51.074;13.764;2022-07-29T07:28:04;100068.88;;;23.41
43802;BMP280;29429;51.074;13.764;2022-07-29T07:30:31;100071.56;;;23.51
43802;BMP280;29429;51.074;13.764;2022-07-29T07:33:00;100068.22;;;23.59
43802;BMP280;29429;51.074;13.764;2022-07-29T07:35:26;100061.75;;;23.50
43802;BMP280;29429;51.074;13.764;2022-07-29T07:37:55;100059.59;;;23.47
43802;BMP280;29429;51.074;13.764;2022-07-29T07:40:23;100065.59;;;23.44
43802;BMP280;29429;51.074;13.764;2022-07-29T07:42:50;100061.75;;;23.50
43802;BMP280;29429;51.074;13.764;2022-07-29T07:45:17;100058.97;;;23.60
43802;BMP280;29429;51.074;13.764;2022-07-29T07:47:44;100057.28;;;23.69
43802;BMP280;29429;51.074;13.764;2022-07-29T07:50:12;100062.38;;;23.76
43802;BMP280;29429;51.074;13.764;2022-07-29T07:52:51;100054.44;;;23.84
43802;BMP280;29429;51.074;13.764;2022-07-29T07:55:19;100052.16;;;23.96
43802;BMP280;29429;51.074;13.764;2022-07-29T07:57:47;100058.03;;;24.13
43802;BMP280;29429;51.074;13.764;2022-07-29T08:00:16;100057.38;;;24.27
43802;BMP280;29429;51.074;13.764;2022-07-29T08:02:44;100044.69;;;24.41
43802;BMP280;29429;51.074;13.764;2022-07-29T08:05:12;100047.31;;;24.51
43802;BMP280;29429;51.074;13.764;2022-07-29T08:07:45;100047.78;;;24.58
43802;BMP280;29429;51.074;13.764;2022-07-29T08:10:15;100038.88;;;24.47
43802;BMP280;29429;51.074;13.764;2022-07-29T08:13:06;100029.78;;;24.57
43802;BMP280;29429;51.074;13.764;2022-07-29T08:15:33;100024.91;;;24.77
43802;BMP280;29429;51.074;13.764;2022-07-29T08:18:01;100032.59;;;24.99
43802;BMP280;29429;51.074;13.764;2022-07-29T08:20:35;100021.38;;;25.19
43802;BMP280;29429;51.074;13.764;2022-07-29T08:23:03;100018.94;;;25.36
43802;BMP280;29429;51.074;13.764;2022-07-29T08:25:43;100016.53;;;25.54
43802;BMP280;29429;51.074;13.764;2022-07-29T08:28:12;100020.56;;;25.75
43802;BMP280;29429;51.074;13.764;2022-07-29T08:34:26;100002.44;;;26.11
43802;BMP280;29429;51.074;13.764;2022-07-29T08:36:56;100001.00;;;26.32
43802;BMP280;29429;51.074;13.764;2022-07-29T08:39:43;100006.69;;;26.49
43802;BMP280;29429;51.074;13.764;2022-07-29T08:42:11;100005.19;;;26.71
43802;BMP280;29429;51.074;13.764;2022-07-29T08:44:38;99988.94;;;26.88
43802;BMP280;29429;51.074;13.764;2022-07-29T08:47:05;99999.19;;;26.96
43802;BMP280;29429;51.074;13.764;2022-07-29T08:49:35;100002.84;;;27.05
43802;BMP280;29429;51.074;13.764;2022-07-29T08:52:03;99999.97;;;27.10
43802;BMP280;29429;51.074;13.764;2022-07-29T08:54:30;100003.31;;;27.20
43802;BMP280;29429;51.074;13.764;2022-07-29T08:56:58;100003.56;;;27.33
43802;BMP280;29429;51.074;13.764;2022-07-29T08:59:27;99999.22;;;27.45
43802;BMP280;29429;51.074;13.764;2022-07-29T09:01:59;99992.06;;;27.58
43802;BMP280;29429;51.074;13.764;2022-07-29T09:04:34;99994.88;;;27.66
43802;BMP280;29429;51.074;13.764;2022-07-29T09:07:04;99992.22;;;27.84
43802;BMP280;29429;51.074;13.764;2022-07-29T09:09:33;99981.00;;;27.94
43802;BMP280;29429;51.074;13.764;2022-07-29T09:12:01;99978.06;;;28.12
43802;BMP280;29429;51.074;13.764;2022-07-29T09:14:28;99975.22;;;28.26
43802;BMP280;29429;51.074;13.764;2022-07-29T09:16:56;99969.97;;;28.47
43802;BMP280;29429;51.074;13.764;2022-07-29T09:19:28;99955.84;;;28.70
43802;BMP280;29429;51.074;13.764;2022-07-29T09:21:58;99963.84;;;28.97
43802;BMP280;29429;51.074;13.764;2022-07-29T09:27:25;99960.00;;;29.33
43802;BMP280;29429;51.074;13.764;2022-07-29T09:30:14;99950.63;;;29.42
43802;BMP280;29429;51.074;13.764;2022-07-29T09:33:00;99953.53;;;29.54
43802;BMP280;29429;51.074;13.764;2022-07-29T09:35:29;99945.13;;;29.60
43802;BMP280;29429;51.074;13.764;2022-07-29T09:37:57;99944.59;;;29.75
43802;BMP280;29429;51.074;13.764;2022-07-29T09:40:27;99942.34;;;29.85
43802;BMP280;29429;51.074;13.764;2022-07-29T09:42:55;99940.69;;;29.93
43802;BMP280;29429;51.074;13.764;2022-07-29T09:45:33;99938.38;;;30.03
43802;BMP280;29429;51.074;13.764;2022-07-29T09:48:18;99936.44;;;30.04
43802;BMP280;29429;51.074;13.764;2022-07-29T09:50:46;99945.03;;;30.02
43802;BMP280;29429;51.074;13.764;2022-07-29T09:53:37;99952.50;;;29.93
43802;BMP280;29429;51.074;13.764;2022-07-29T09:56:04;99950.41;;;29.90
43802;BMP280;29429;51.074;13.764;2022-07-29T09:58:32;99946.66;;;29.95
43802;BMP280;29429;51.074;13.764;2022-07-29T10:01:02;99958.78;;;30.02
43802;BMP280;29429;51.074;13.764;2022-07-29T10:03:29;99950.84;;;30.09
43802;BMP280;29429;51.074;13.764;2022-07-29T10:06:11;99950.47;;;30.20
43802;BMP280;29429;51.074;13.764;2022-07-29T10:08:41;99950.91;;;30.30
43802;BMP280;29429;51.074;13.764;2022-07-29T10:13:43;99948.25;;;30.51
43802;BMP280;29429;51.074;13.764;2022-07-29T10:16:11;99947.31;;;30.47
43802;BMP280;29429;51.074;13.764;2022-07-29T10:18:44;99934.47;;;30.51
43802;BMP280;29429;51.074;13.764;2022-07-29T10:21:12;99940.84;;;30.43
43802;BMP280;29429;51.074;13.764;2022-07-29T10:23:59;99937.63;;;30.41
43802;BMP280;29429;51.074;13.764;2022-07-29T10:26:29;99930.53;;;30.23
43802;BMP280;29429;51.074;13.764;2022-07-29T10:28:56;99938.81;;;30.23
43802;BMP280;29429;51.074;13.764;2022-07-29T10:31:35;99923.03;;;30.32
43802;BMP280;29429;51.074;13.764;2022-07-29T10:35:12;99934.59;;;30.25
43802;BMP280;29429;51.074;13.764;2022-07-29T10:43:48;99934.81;;;30.11
43802;BMP280;29429;51.074;13.764;2022-07-29T10:46:18;99928.34;;;30.07
43802;BMP280;29429;51.074;13.764;2022-07-29T10:49:06;99909.13;;;29.99
43802;BMP280;29429;51.074;13.764;2022-07-29T10:54:19;99917.22;;;29.95
43802;BMP280;29429;51.074;13.764;2022-07-29T10:56:47;99915.63;;;30.24
43802;BMP280;29429;51.074;13.764;2022-07-29T11:01:51;99916.84;;;30.72
43802;BMP280;29429;51.074;13.764;2022-07-29T11:05:02;99915.53;;;30.79
43802;BMP280;29429;51.074;13.764;2022-07-29T11:07:30;99911.50;;;30.76
43802;BMP280;29429;51.074;13.764;2022-07-29T11:15:21;99910.53;;;30.72
43802;BMP280;29429;51.074;13.764;2022-07-29T11:20:42;99893.13;;;30.80
43802;BMP280;29429;51.074;13.764;2022-07-29T11:29:00;99906.38;;;30.87
43802;BMP280;29429;51.074;13.764;2022-07-29T11:34:31;99885.91;;;30.96
43802;BMP280;29429;51.074;13.764;2022-07-29T11:39:38;99899.16;;;31.03
43802;BMP280;29429;51.074;13.764;2022-07-29T11:45:04;99893.63;;;31.23
43802;BMP280;29429;51.074;13.764;2022-07-29T11:47:58;99893.16;;;31.21
43802;BMP280;29429;51.074;13.764;2022-07-29T11:50:46;99883.41;;;31.24
43802;BMP280;29429;51.074;13.764;2022-07-29T11:53:14;99887.47;;;31.39
43802;BMP280;29429;51.074;13.764;2022-07-29T11:55:42;99896.31;;;31.65
43802;BMP280;29429;51.074;13.764;2022-07-29T11:58:22;99884.88;;;31.87
43802;BMP280;29429;51.074;13.764;2022-07-29T12:00:53;99887.72;;;31.66
43802;BMP280;29429;51.074;13.764;2022-07-29T12:03:28;99883.47;;;31.69
43802;BMP280;29429;51.074;13.764;2022-07-29T12:06:02;99888.28;;;31.72
43802;BMP280;29429;51.074;13.764;2022-07-29T12:08:57;99887.22;;;31.64
43802;BMP280;29429;51.074;13.764;2022-07-29T12:11:24;99869.09;;;31.75
43802;BMP280;29429;51.074;13.764;2022-07-29T12:13:52;99883.06;;;32.03
43802;BMP280;29429;51.074;13.764;2022-07-29T12:16:20;99882.50;;;32.10
43802;BMP280;29429;51.074;13.764;2022-07-29T12:19:00;99877.31;;;32.32
43802;BMP280;29429;51.074;13.764;2022-07-29T12:21:55;99864.88;;;32.50
43802;BMP280;29429;51.074;13.764;2022-07-29T12:24:26;99871.09;;;32.60
43802;BMP280;29429;51.074;13.764;2022-07-29T12:27:11;99870.97;;;32.44
43802;BMP280;29429;51.074;13.764;2022-07-29T12:29:39;99861.19;;;32.46
43802;BMP280;29429;51.074;13.764;2022-07-29T12:32:13;99867.06;;;32.45
43802;BMP280;29429;51.074;13.764;2022-07-29T12:34:46;99870.41;;;32.26
43802;BMP280;29429;51.074;13.764;2022-07-29T12:37:13;99867.09;;;32.09
43802;BMP280;29429;51.074;13.764;2022-07-29T12:39:40;99860.47;;;31.89
43802;BMP280;29429;51.074;13.764;2022-07-29T12:42:15;99867.84;;;31.97
43802;BMP280;29429;51.074;13.764;2022-07-29T12:44:50;99868.97;;;31.96
43802;BMP280;29429;51.074;13.764;2022-07-29T12:47:25;99870.53;;;32.06
43802;BMP280;29429;51.074;13.764;2022-07-29T12:50:14;99867.13;;;31.88
43802;BMP280;29429;51.074;13.764;2022-07-29T12:52:48;99866.00;;;31.89
43802;BMP280;29429;51.074;13.764;2022-07-29T12:55:40;99867.50;;;31.86
43802;BMP280;29429;51.074;13.764;2022-07-29T12:58:08;99863.47;;;31.84
43802;BMP280;29429;51.074;13.764;2022-07-29T13:00:34;99857.72;;;31.89
43802;BMP280;29429;51.074;13.764;2022-07-29T13:03:02;99848.06;;;31.95
43802;BMP280;29429;51.074;13.764;2022-07-29T13:05:44;99848.97;;;31.99
43802;BMP280;29429;51.074;13.764;2022-07-29T13:08:17;99847.50;;;32.02
43802;BMP280;29429;51.074;13.764;2022-07-29T13:10:48;99848.53;;;31.97
43802;BMP280;29429;51.074;13.764;2022-07-29T13:13:15;99846.22;;;31.99
43802;BMP280;29429;51.074;13.764;2022-07-29T13:15:45;99849.81;;;32.00
43802;BMP280;29429;51.074;13.764;2022-07-29T13:18:35;99839.59;;;32.00
43802;BMP280;29429;51.074;13.764;2022-07-29T13:21:13;99851.53;;;32.04
43802;BMP280;29429;51.074;13.764;2022-07-29T13:23:42;99846.13;;;32.08
43802;BMP280;29429;51.074;13.764;2022-07-29T13:26:11;99842.34;;;32.12
43802;BMP280;29429;51.074;13.764;2022-07-29T13:28:38;99839.00;;;32.07
43802;BMP280;29429;51.074;13.764;2022-07-29T13:31:05;99842.34;;;32.00
43802;BMP280;29429;51.074;13.764;2022-07-29T13:33:32;99846.31;;;31.90
43802;BMP280;29429;51.074;13.764;2022-07-29T13:35:59;99843.44;;;31.99
43802;BMP280;29429;51.074;13.764;2022-07-29T13:38:27;99844.44;;;32.03
43802;BMP280;29429;51.074;13.764;2022-07-29T13:40:57;99840.13;;;31.93
43802;BMP280;29429;51.074;13.764;2022-07-29T13:43:24;99841.50;;;31.87
43802;BMP280;29429;51.074;13.764;2022-07-29T13:45:51;99835.38;;;31.70
43802;BMP280;29429;51.074;13.764;2022-07-29T13:48:18;99837.00;;;31.71
43802;BMP280;29429;51.074;13.764;2022-07-29T13:50:45;99843.56;;;31.78
43802;BMP280;29429;51.074;13.764;2022-07-29T13:53:13;99829.19;;;31.73
43802;BMP280;29429;51.074;13.764;2022-07-29T13:55:43;99833.53;;;31.62
43802;BMP280;29429;51.074;13.764;2022-07-29T13:58:10;99829.41;;;31.56
43802;BMP280;29429;51.074;13.764;2022-07-29T14:00:37;99830.75;;;31.50
43802;BMP280;29429;51.074;13.764;2022-07-29T14:03:04;99833.72;;;31.45
43802;BMP280;29429;51.074;13.764;2022-07-29T14:05:54;99832.09;;;31.44
43802;BMP280;29429;51.074;13.764;2022-07-29T14:08:35;99830.50;;;31.43
43802;BMP280;29429;51.074;13.764;2022-07-29T14:11:03;99828.19;;;31.45
43802;BMP280;29429;51.074;13.764;2022-07-29T14:13:31;99836.69;;;31.40
43802;BMP280;29429;51.074;13.764;2022-07-29T14:15:58;99828.97;;;31.33
43802;BMP280;29429;51.074;13.764;2022-07-29T14:18:25;99827.25;;;31.41
43802;BMP280;29429;51.074;13.764;2022-07-29T14:20:52;99835.00;;;31.47
43802;BMP280;29429;51.074;13.764;2022-07-29T14:23:19;99828.91;;;31.54
43802;BMP280;29429;51.074;13.764;2022-07-29T14:25:46;99816.88;;;31.58
43802;BMP280;29429;51.074;13.764;2022-07-29T14:28:15;99810.09;;;31.56
43802;BMP280;29429;51.074;13.764;2022-07-29T14:30:42;99809.81;;;31.49
43802;BMP280;29429;51.074;13.764;2022-07-29T14:33:10;99816.88;;;31.38
43802;BMP280;29429;51.074;13.764;2022-07-29T14:35:37;99810.91;;;31.23
43802;BMP280;29429;51.074;13.764;2022-07-29T14:38:03;99810.84;;;31.11
43802;BMP280;29429;51.074;13.764;2022-07-29T14:40:30;99809.47;;;31.05
43802;BMP280;29429;51.074;13.764;2022-07-29T14:42:57;99802.78;;;31.06
43802;BMP280;29429;51.074;13.764;2022-07-29T14:45:24;99808.56;;;31.13
43802;BMP280;29429;51.074;13.764;2022-07-29T14:47:51;99807.94;;;31.28
43802;BMP280;29429;51.074;13.764;2022-07-29T14:50:23;99809.69;;;31.45
43802;BMP280;29429;51.074;13.764;2022-07-29T14:52:59;99802.03;;;31.63
43802;BMP280;29429;51.074;13.764;2022-07-29T14:55:26;99815.84;;;31.75
43802;BMP280;29429;51.074;13.764;2022-07-29T14:57:53;99805.28;;;31.77
43802;BMP280;29429;51.074;13.764;2022-07-29T15:00:31;99808.72;;;31.74
43802;BMP280;29429;51.074;13.764;2022-07-29T15:03:00;99817.22;;;31.69